Time;durP1;ratioP1;P1;durP2;ratioP2;P2;SDS_P1;SDS_P2;PMS_P1;PMS_P2;Temp;Humidity;BMP_temperature;BMP_pressure;BME280_temperature;BME280_humidity;BME280_pressure;Samples;Min_cycle;Max_cycle;Signal;HPM_P1;HPM_P2
2023/02/10 00:00:39;;;;;;;55.42;30.30;;;;;;;-146.25;100.00;52420.91;2088093;28;42312;-68
2023/02/10 00:01:41;;;;;;;66.70;30.63;;;;;;;-146.25;100.00;52437.13;2087808;28;35861;-68
2023/02/10 00:02:43;;;;;;;57.60;29.55;;;;;;;-146.25;100.00;52463.50;2088791;28;38670;-69
2023/02/10 00:03:45;;;;;;;58.92;30.80;;;;;;;-146.25;100.00;52402.66;2088993;28;28902;-68
2023/02/10 00:04:47;;;;;;;70.78;30.73;;;;;;;-146.25;100.00;52424.97;2088359;28;39582;-69
2023/02/10 00:05:48;;;;;;;58.22;29.67;;;;;;;-146.25;100.00;52422.94;2088705;28;39996;-69
2023/02/10 00:06:50;;;;;;;59.50;29.15;;;;;;;-146.25;100.00;52435.09;2088561;28;36375;-68
2023/02/10 00:07:56;;;;;;;66.88;31.55;;;;;;;-146.25;100.00;52392.53;2088337;28;39731;-68
2023/02/10 00:09:01;;;;;;;64.50;31.48;;;;;;;-146.25;100.00;52424.97;2088770;28;37810;-68
2023/02/10 00:10:03;;;;;;;61.70;31.33;;;;;;;-146.25;100.00;52429.03;2088880;28;36786;-68
2023/02/10 00:11:10;;;;;;;69.40;30.05;;;;;;;-146.25;100.00;52408.75;2088102;28;36388;-68
2023/02/10 00:12:13;;;;;;;65.18;30.63;;;;;;;-146.25;100.00;52433.06;2088581;28;38245;-68
2023/02/10 00:13:15;;;;;;;60.53;29.48;;;;;;;-146.25;100.00;52429.03;2088543;28;36977;-69
2023/02/10 00:14:18;;;;;;;69.95;31.60;;;;;;;-146.25;100.00;52414.84;2088644;28;33879;-68
2023/02/10 00:15:21;;;;;;;75.30;32.42;;;;;;;-146.25;100.00;52437.13;2089614;28;20890;-69
2023/02/10 00:16:23;;;;;;;65.32;32.78;;;;;;;-146.25;100.00;52463.50;2088580;28;39864;-69
2023/02/10 00:17:25;;;;;;;68.30;33.33;;;;;;;-146.25;100.00;52416.84;2088859;28;38345;-69
2023/02/10 00:18:27;;;;;;;70.47;33.17;;;;;;;-146.25;100.00;52410.78;2088897;28;20046;-68
2023/02/10 00:19:33;;;;;;;67.65;32.38;;;;;;;-146.25;100.00;52439.16;2088484;28;38605;-69
2023/02/10 00:20:34;;;;;;;75.05;33.28;;;;;;;-146.25;100.00;52427.00;2088675;28;38779;-69
2023/02/10 00:21:36;;;;;;;70.95;33.08;;;;;;;-146.25;100.00;52437.13;2088432;28;37994;-69
2023/02/10 00:22:40;;;;;;;69.25;33.85;;;;;;;-146.25;100.00;52422.94;2088423;28;40272;-69
2023/02/10 00:23:43;;;;;;;75.30;33.45;;;;;;;-146.25;100.00;52431.06;2088107;28;42735;-69
2023/02/10 00:24:44;;;;;;;80.05;34.25;;;;;;;-146.25;100.00;52445.25;2088262;28;39276;-68
2023/02/10 00:25:46;;;;;;;67.63;32.53;;;;;;;-146.25;100.00;52406.72;2088410;28;20052;-69
2023/02/10 00:26:48;;;;;;;76.20;33.38;;;;;;;-146.25;100.00;52408.75;2087628;28;43430;-69
2023/02/10 00:27:53;;;;;;;77.07;34.65;;;;;;;-146.25;100.00;52427.00;2079784;28;31223;-69
2023/02/10 00:28:55;;;;;;;76.00;34.65;;;;;;;-146.25;100.00;52427.00;2080054;28;32471;-69
2023/02/10 00:29:59;;;;;;;81.15;35.85;;;;;;;-146.25;100.00;52400.63;2088495;28;29042;-67
2023/02/10 00:31:10;;;;;;;81.35;36.28;;;;;;;-146.25;100.00;52380.38;2088379;28;28916;-69
2023/02/10 00:32:12;;;;;;;87.00;36.50;;;;;;;-146.25;100.00;52455.38;2088751;28;20167;-69
2023/02/10 00:33:14;;;;;;;78.18;34.17;;;;;;;-146.25;100.00;52441.19;2089165;28;20028;-69
2023/02/10 00:34:17;;;;;;;80.82;34.63;;;;;;;-146.25;100.00;52437.13;2088591;28;29767;-69
2023/02/10 00:35:20;;;;;;;74.55;33.35;;;;;;;-146.25;100.00;52404.69;2089275;28;20165;-69
2023/02/10 00:36:23;;;;;;;72.75;35.58;;;;;;;-146.25;100.00;52459.44;2088582;28;29336;-69
2023/02/10 00:37:25;;;;;;;80.20;33.60;;;;;;;-146.25;100.00;52435.09;2080110;28;20057;-69
2023/02/10 00:38:27;;;;;;;75.65;35.05;;;;;;;-146.25;100.00;52410.78;2079301;28;33186;-69
2023/02/10 00:39:29;;;;;;;83.30;35.85;;;;;;;-146.25;100.00;52424.97;2079628;28;34038;-69
2023/02/10 00:40:30;;;;;;;75.22;33.13;;;;;;;-146.25;100.00;52429.03;2089420;28;20899;-69
2023/02/10 00:41:37;;;;;;;71.75;33.55;;;;;;;-146.25;100.00;52418.88;2087712;28;20879;-69
2023/02/10 00:42:41;;;;;;;75.15;34.08;;;;;;;-146.25;100.00;52414.84;2079643;28;31393;-69
2023/02/10 00:43:44;;;;;;;66.32;30.83;;;;;;;-146.25;100.00;52431.06;2071882;28;30590;-69
2023/02/10 00:44:46;;;;;;;62.17;31.38;;;;;;;-146.25;100.00;52429.03;2071687;28;37586;-69
2023/02/10 00:45:50;;;;;;;80.55;36.03;;;;;;;-146.25;100.00;52433.06;2080481;28;20112;-69
2023/02/10 00:46:51;;;;;;;76.03;35.83;;;;;;;-146.25;100.00;52443.22;2080100;28;20034;-69
2023/02/10 00:47:53;;;;;;;79.70;34.83;;;;;;;-146.25;100.00;52416.84;2071864;28;20261;-68
2023/02/10 00:48:55;;;;;;;77.85;36.90;;;;;;;-146.25;100.00;52439.16;2071583;28;25336;-69
2023/02/10 00:49:59;;;;;;;91.10;35.55;;;;;;;-146.25;100.00;52420.91;2080585;28;20092;-69
2023/02/10 00:51:02;;;;;;;83.53;36.80;;;;;;;-146.25;100.00;52420.91;2080125;28;20411;-69
2023/02/10 00:52:04;;;;;;;76.88;34.50;;;;;;;-146.25;100.00;52427.00;2079879;28;20037;-69
2023/02/10 00:53:05;;;;;;;79.82;35.72;;;;;;;-146.25;100.00;52447.28;2087660;28;32980;-69
2023/02/10 00:54:12;;;;;;;78.28;35.05;;;;;;;-146.25;100.00;52392.53;2079930;28;21025;-68
2023/02/10 00:55:13;;;;;;;90.57;35.92;;;;;;;-146.25;100.00;52410.78;2072419;28;22057;-69
2023/02/10 00:56:16;;;;;;;79.05;33.80;;;;;;;-146.25;100.00;52427.00;2079339;28;38027;-69
2023/02/10 00:57:18;;;;;;;79.07;33.45;;;;;;;-146.25;100.00;52445.25;2079952;28;23778;-69
2023/02/10 00:58:22;;;;;;;79.20;32.83;;;;;;;-146.25;100.00;52408.75;2079508;28;35127;-68
2023/02/10 00:59:24;;;;;;;71.50;32.65;;;;;;;-146.25;100.00;52400.63;2089094;28;20045;-69
2023/02/10 01:00:25;;;;;;;73.15;34.90;;;;;;;-146.25;100.00;52388.47;2088183;28;34616;-69
2023/02/10 01:01:29;;;;;;;85.13;36.05;;;;;;;-146.25;100.00;52422.94;2088150;28;40131;-70
2023/02/10 01:02:31;;;;;;;69.88;32.90;;;;;;;-146.25;100.00;52455.38;2089138;28;20049;-69
2023/02/10 01:03:34;;;;;;;72.05;31.98;;;;;;;-146.25;100.00;52420.91;2106176;22;20143;-72
2023/02/10 01:04:37;;;;;;;74.68;34.13;;;;;;;-146.25;100.00;52416.84;2081803;28;34098;-72
2023/02/10 01:05:39;;;;;;;75.03;35.45;;;;;;;-146.25;100.00;52398.59;2080242;28;26359;-72
2023/02/10 01:06:42;;;;;;;76.88;34.90;;;;;;;-146.25;100.00;52420.91;2088144;28;34491;-72
2023/02/10 01:07:44;;;;;;;81.78;35.47;;;;;;;-146.25;100.00;52406.72;2088164;28;20050;-72
2023/02/10 01:08:46;;;;;;;75.20;35.28;;;;;;;-146.25;100.00;52408.75;2087533;28;35695;-72
2023/02/10 01:09:48;;;;;;;76.18;34.63;;;;;;;-146.25;100.00;52459.44;2079024;28;38961;-72
2023/02/10 01:10:56;;;;;;;81.15;33.95;;;;;;;-146.25;100.00;52424.97;2079507;28;32932;-72
2023/02/10 01:11:58;;;;;;;76.47;33.92;;;;;;;-146.25;100.00;52441.19;2087756;28;32286;-72
2023/02/10 01:13:02;;;;;;;71.95;32.65;;;;;;;-146.25;100.00;52400.63;2079749;28;20049;-71
2023/02/10 01:14:04;;;;;;;75.30;32.80;;;;;;;-146.25;100.00;52414.84;2071775;28;29643;-71
2023/02/10 01:15:09;;;;;;;85.15;35.42;;;;;;;-146.25;100.00;52453.34;2079361;28;40909;-71
2023/02/10 01:16:16;;;;;;;75.80;32.70;;;;;;;-146.25;100.00;52416.84;2088237;28;20041;-73
2023/02/10 01:17:20;;;;;;;86.40;36.13;;;;;;;-146.25;100.00;52424.97;2079256;28;34877;-71
2023/02/10 01:18:22;;;;;;;81.32;34.85;;;;;;;-146.25;100.00;52435.09;2080119;28;37806;-73
2023/02/10 01:19:24;;;;;;;80.80;33.97;;;;;;;-146.25;100.00;52408.75;2079408;28;31783;-73
2023/02/10 01:20:26;;;;;;;83.78;34.83;;;;;;;-146.25;100.00;52420.91;2071235;28;34538;-73
2023/02/10 01:21:29;;;;;;;78.80;34.67;;;;;;;-146.25;100.00;52386.44;2071704;28;27738;-73
2023/02/10 01:22:34;;;;;;;74.20;33.67;;;;;;;-146.25;100.00;52429.03;2071642;28;26726;-73
2023/02/10 01:23:37;;;;;;;99.80;36.67;;;;;;;-146.25;100.00;52402.66;2080143;28;28746;-73
2023/02/10 01:24:40;;;;;;;86.68;34.50;;;;;;;-146.25;100.00;52449.31;2089228;28;20168;-73
2023/02/10 01:25:42;;;;;;;75.57;34.03;;;;;;;-146.25;100.00;52433.06;2088218;28;32019;-73
2023/02/10 01:26:44;;;;;;;87.20;36.03;;;;;;;-146.25;100.00;52445.25;2088730;28;20040;-73
2023/02/10 01:27:46;;;;;;;77.75;33.55;;;;;;;-146.25;100.00;52431.06;2087646;28;20040;-72
2023/02/10 01:28:48;;;;;;;78.68;34.40;;;;;;;-146.25;100.00;52437.13;2087802;28;29614;-73
2023/02/10 01:29:50;;;;;;;83.80;33.95;;;;;;;-146.25;100.00;52390.50;2088195;28;32418;-73
2023/02/10 01:30:51;;;;;;;93.88;36.50;;;;;;;-146.25;100.00;52463.50;2088248;28;25842;-73
2023/02/10 01:31:53;;;;;;;78.85;37.42;;;;;;;-146.25;100.00;52437.13;2088950;28;20044;-73
2023/02/10 01:32:56;;;;;;;81.75;34.20;;;;;;;-146.25;100.00;52410.78;2079330;28;32505;-73
2023/02/10 01:33:58;;;;;;;84.80;35.33;;;;;;;-146.25;100.00;52420.91;2080034;28;30171;-73
2023/02/10 01:34:59;;;;;;;78.70;33.95;;;;;;;-146.25;100.00;52420.91;2081778;28;35580;-73
2023/02/10 01:36:12;;;;;;;79.38;33.42;;;;;;;-146.25;100.00;52459.44;2087347;28;33165;-73
2023/02/10 01:37:14;;;;;;;91.53;35.05;;;;;;;-146.25;100.00;52455.38;2080396;28;20085;-73
2023/02/10 01:38:16;;;;;;;101.30;37.05;;;;;;;-146.25;100.00;52398.59;2071713;28;31556;-73
2023/02/10 01:39:19;;;;;;;95.97;38.00;;;;;;;-146.25;100.00;52443.22;2079008;28;40452;-73
2023/02/10 01:40:24;;;;;;;96.72;36.90;;;;;;;-146.25;100.00;52416.84;2088632;28;20038;-73
2023/02/10 01:41:27;;;;;;;86.20;36.30;;;;;;;-146.25;100.00;52396.59;2083900;28;34311;-73
2023/02/10 01:42:29;;;;;;;94.78;37.45;;;;;;;-146.25;100.00;52453.34;2072229;28;20943;-72
2023/02/10 01:43:31;;;;;;;88.38;37.47;;;;;;;-146.25;100.00;52467.56;2080144;28;20136;-73
2023/02/10 01:44:32;;;;;;;95.43;37.72;;;;;;;-146.25;100.00;52443.22;2087472;28;28772;-72
2023/02/10 01:45:38;;;;;;;87.68;36.78;;;;;;;-146.25;100.00;52441.19;2079602;28;35711;-73
2023/02/10 01:46:39;;;;;;;91.28;35.40;;;;;;;-146.25;100.00;52406.72;2088459;28;28671;-73
2023/02/10 01:47:44;;;;;;;92.57;36.95;;;;;;;-146.25;100.00;52437.13;2097134;28;27080;-73
2023/02/10 01:48:46;;;;;;;89.65;37.83;;;;;;;-146.25;100.00;52427.00;2087195;28;33099;-73
2023/02/10 01:49:50;;;;;;;88.05;36.17;;;;;;;-146.25;100.00;52410.78;2087829;28;31528;-73
2023/02/10 01:51:00;;;;;;;103.43;36.30;;;;;;;-146.25;100.00;52420.91;2096528;28;23829;-73
2023/02/10 01:52:06;;;;;;;72.07;28.80;;;;;;;-146.25;100.00;52447.28;2087189;28;31414;-72
2023/02/10 01:53:10;;;;;;;89.97;36.00;;;;;;;-146.25;100.00;52441.19;2089344;28;20046;-73
2023/02/10 01:54:19;;;;;;;95.75;37.15;;;;;;;-146.25;100.00;52416.84;2087877;28;20923;-72
2023/02/10 01:55:33;;;;;;;96.15;37.38;;;;;;;-146.25;100.00;52441.19;2072539;28;20797;-72
2023/02/10 01:56:35;;;;;;;97.18;36.47;;;;;;;-146.25;100.00;52447.28;2080864;28;29778;-72
2023/02/10 01:57:42;;;;;;;98.25;36.22;;;;;;;-146.25;100.00;52420.91;2089136;28;20963;-72
2023/02/10 01:58:44;;;;;;;89.95;37.67;;;;;;;-146.25;100.00;52435.09;2088219;28;20104;-72
2023/02/10 01:59:46;;;;;;;93.63;37.15;;;;;;;-146.25;100.00;52410.78;2087479;28;31650;-72
2023/02/10 02:00:50;;;;;;;93.13;37.55;;;;;;;-146.25;100.00;52427.00;2096868;28;20041;-72
2023/02/10 02:01:52;;;;;;;95.20;36.13;;;;;;;-146.25;100.00;52380.38;2096405;28;27900;-73
2023/02/10 02:02:54;;;;;;;87.03;37.70;;;;;;;-146.25;100.00;52429.03;2096470;28;26953;-72
2023/02/10 02:03:58;;;;;;;110.65;38.85;;;;;;;-146.25;100.00;52416.84;2096030;28;34192;-73
2023/02/10 02:05:02;;;;;;;84.80;35.53;;;;;;;-146.25;100.00;52435.09;2095648;28;30940;-72
2023/02/10 02:06:04;;;;;;;97.28;37.55;;;;;;;-146.25;100.00;52408.75;2095931;28;27886;-72
2023/02/10 02:07:06;;;;;;;94.90;37.13;;;;;;;-146.25;100.00;52461.47;2096398;28;29910;-72
2023/02/10 02:08:29;;;;;;;94.20;37.67;;;;;;;-146.25;100.00;52435.09;2095637;28;29564;-72
2023/02/10 02:09:31;;;;;;;97.47;37.33;;;;;;;-146.25;100.00;52449.31;2096122;28;40798;-73
2023/02/10 02:11:17;;;;;;;97.45;38.40;;;;;;;-146.25;100.00;52408.75;2096736;28;27539;-73
2023/02/10 02:13:06;;;;;;;94.40;35.70;;;;;;;-146.25;100.00;52400.63;2070658;28;23579;-72
2023/02/10 02:14:27;;;;;;;79.97;32.42;;;;;;;-146.25;100.00;52435.09;2094018;28;26270;-73
2023/02/10 02:15:47;;;;;;;95.53;35.70;;;;;;;-146.25;100.00;52418.88;2088293;28;20111;-72
2023/02/10 02:17:29;;;;;;;83.10;34.47;;;;;;;-146.25;100.00;52429.03;2084821;28;20248;-73
2023/02/10 02:18:46;;;;;;;68.72;26.92;;;;;;;-146.25;100.00;52443.22;2083936;28;32041;-73
2023/02/10 02:22:08;;;;;;;81.07;33.55;;;;;;;-146.25;100.00;52424.97;2085774;28;29478;-73
2023/02/10 02:23:44;;;;;;;98.63;35.42;;;;;;;-146.25;100.00;52416.84;2079482;28;21831;-72
2023/02/10 02:25:07;;;;;;;89.97;34.88;;;;;;;-146.25;100.00;52424.97;2090930;28;34483;-73
2023/02/10 02:26:53;;;;;;;95.47;36.97;;;;;;;-146.25;100.00;52416.84;2097069;28;20037;-73
2023/02/10 02:28:32;;;;;;;87.43;32.97;;;;;;;-146.25;100.00;52447.28;2096673;28;20033;-73
2023/02/10 02:30:01;;;;;;;90.63;34.55;;;;;;;-146.25;100.00;52449.31;2096545;28;33388;-73
2023/02/10 02:31:46;;;;;;;99.05;36.28;;;;;;;-146.25;100.00;52412.81;2096360;28;38537;-72
2023/02/10 02:33:06;;;;;;;89.15;33.03;;;;;;;-146.25;100.00;52394.56;2086655;28;36353;-73
2023/02/10 02:34:33;;;;;;;104.22;37.22;;;;;;;-146.25;100.00;52420.91;2081906;28;20490;-73
2023/02/10 02:35:50;;;;;;;94.93;35.00;;;;;;;-146.25;100.00;52461.47;2084367;28;37677;-73
2023/02/10 02:37:18;;;;;;;89.25;34.83;;;;;;;-146.25;100.00;52406.72;2083633;28;31577;-73
2023/02/10 02:38:20;;;;;;;101.47;37.55;;;;;;;-146.25;100.00;52449.31;2084379;28;20038;-73
2023/02/10 02:39:22;;;;;;;107.80;39.10;;;;;;;-146.25;100.00;52441.19;2087914;28;20045;-72
2023/02/10 02:40:24;;;;;;;99.25;38.42;;;;;;;-146.25;100.00;52477.69;2087850;28;20045;-73
2023/02/10 02:41:29;;;;;;;114.70;40.90;;;;;;;-146.25;100.00;52437.13;2087276;28;31768;-73
2023/02/10 02:42:33;;;;;;;100.43;38.42;;;;;;;-146.25;100.00;52451.31;2095869;28;20927;-73
2023/02/10 02:43:37;;;;;;;103.90;40.20;;;;;;;-146.25;100.00;52433.06;2095310;28;29366;-73
2023/02/10 02:44:39;;;;;;;109.15;39.53;;;;;;;-146.25;100.00;52433.06;2079898;28;20046;-73
2023/02/10 02:45:56;;;;;;;99.38;39.33;;;;;;;-146.25;100.00;52431.06;2079299;28;34404;-73
2023/02/10 02:47:31;;;;;;;104.70;38.80;;;;;;;-146.25;100.00;52427.00;2081824;28;20077;-73
2023/02/10 02:48:57;;;;;;;90.53;35.42;;;;;;;-146.25;100.00;52424.97;2083022;28;34656;-73
2023/02/10 02:50:31;;;;;;;100.10;36.28;;;;;;;-146.25;100.00;52437.13;2079835;28;20148;-73
2023/02/10 02:52:03;;;;;;;107.85;36.88;;;;;;;-146.25;100.00;52414.84;2074985;28;35028;-73
2023/02/10 02:53:38;;;;;;;102.88;36.28;;;;;;;-146.25;100.00;52455.38;2075667;28;20056;-73
2023/02/10 02:55:00;;;;;;;97.22;34.85;;;;;;;-146.25;100.00;52412.81;2084716;28;20034;-72
2023/02/10 02:56:26;;;;;;;102.30;34.95;;;;;;;-146.25;100.00;52398.59;2071152;28;20047;-71
2023/02/10 02:58:01;;;;;;;95.13;35.85;;;;;;;-146.25;100.00;52473.63;2078883;28;26644;-71
2023/02/10 02:59:21;;;;;;;90.57;34.90;;;;;;;-146.25;100.00;52412.81;2073924;28;32157;-72
2023/02/10 03:00:30;;;;;;;102.18;37.83;;;;;;;-146.25;100.00;52439.16;2087505;28;36504;-71
2023/02/10 03:01:42;;;;;;;95.38;36.50;;;;;;;-146.25;100.00;52402.66;2095905;28;20029;-71
2023/02/10 03:02:45;;;;;;;106.65;37.85;;;;;;;-146.25;100.00;52418.88;2098166;28;30931;-71
2023/02/10 03:03:47;;;;;;;111.80;38.40;;;;;;;-146.25;100.00;52439.16;2094597;28;35880;-71
2023/02/10 03:04:49;;;;;;;105.57;37.85;;;;;;;-146.25;100.00;52443.22;2095935;28;28189;-73
2023/02/10 03:05:50;;;;;;;114.93;39.90;;;;;;;-146.25;100.00;52386.44;2095551;28;25504;-71
2023/02/10 03:06:52;;;;;;;113.50;39.85;;;;;;;-146.25;100.00;52453.34;2095530;28;20044;-72
2023/02/10 03:07:56;;;;;;;111.43;39.35;;;;;;;-146.25;100.00;52457.41;2103721;28;20151;-72
2023/02/10 03:08:58;;;;;;;109.03;37.70;;;;;;;-146.25;100.00;52469.56;2104046;28;26006;-72
2023/02/10 03:10:00;;;;;;;110.43;39.80;;;;;;;-146.25;100.00;52402.66;2104438;28;20102;-72
2023/02/10 03:11:02;;;;;;;101.03;38.08;;;;;;;-146.25;100.00;52453.34;2094872;28;44642;-71
2023/02/10 03:12:07;;;;;;;104.40;38.92;;;;;;;-146.25;100.00;52429.03;2095407;28;37268;-71
2023/02/10 03:13:08;;;;;;;113.78;40.20;;;;;;;-146.25;100.00;52398.59;2094705;28;36748;-72
2023/02/10 03:14:10;;;;;;;115.55;39.13;;;;;;;-146.25;100.00;52414.84;2095370;28;35960;-71
2023/02/10 03:15:12;;;;;;;103.80;39.45;;;;;;;-146.25;100.00;52410.78;2096404;28;20033;-73
2023/02/10 03:16:15;;;;;;;95.32;37.85;;;;;;;-146.25;100.00;52386.44;2095698;28;41409;-73
2023/02/10 03:17:17;;;;;;;105.18;39.00;;;;;;;-146.25;100.00;52441.19;2095742;28;36588;-73
2023/02/10 03:18:19;;;;;;;110.32;39.30;;;;;;;-146.25;100.00;52422.94;2088755;28;38766;-73
2023/02/10 03:19:23;;;;;;;107.53;38.53;;;;;;;-146.25;100.00;52431.06;2087102;28;38910;-73
2023/02/10 03:20:25;;;;;;;106.35;38.20;;;;;;;-146.25;100.00;52443.22;2097799;28;20957;-73
2023/02/10 03:21:27;;;;;;;103.43;39.00;;;;;;;-146.25;100.00;52427.00;2096938;28;41920;-74
2023/02/10 03:22:29;;;;;;;114.95;40.20;;;;;;;-146.25;100.00;52457.41;2097219;28;37215;-73
2023/02/10 03:23:30;;;;;;;102.93;38.15;;;;;;;-146.25;100.00;52437.13;2097336;28;38070;-71
2023/02/10 03:24:32;;;;;;;108.28;38.15;;;;;;;-146.25;100.00;52427.00;2096975;28;40930;-72
2023/02/10 03:25:34;;;;;;;104.93;38.28;;;;;;;-146.25;100.00;52412.81;2097354;28;38131;-71
2023/02/10 03:27:52;;;;;;;97.10;35.33;;;;;;;-146.25;100.00;52429.03;2081637;28;20155;-70
2023/02/10 03:28:54;;;;;;;94.22;36.72;;;;;;;-146.25;100.00;52433.06;2080432;28;38316;-70
2023/02/10 03:29:56;;;;;;;99.45;36.83;;;;;;;-146.25;100.00;52408.75;2080428;28;38893;-71
2023/02/10 03:31:01;;;;;;;104.22;37.40;;;;;;;-146.25;100.00;52449.31;2080568;28;37233;-71
2023/02/10 03:32:05;;;;;;;106.15;37.67;;;;;;;-146.25;100.00;52429.03;2081692;28;21012;-71
2023/02/10 03:33:08;;;;;;;95.53;36.63;;;;;;;-146.25;100.00;52439.16;2081408;28;20872;-70
2023/02/10 03:34:10;;;;;;;108.13;38.63;;;;;;;-146.25;100.00;52424.97;2080409;28;37288;-70
2023/02/10 03:35:12;;;;;;;95.47;37.10;;;;;;;-146.25;100.00;52447.28;2080716;28;40081;-70
2023/02/10 03:36:13;;;;;;;109.15;37.90;;;;;;;-146.25;100.00;52437.13;2080606;28;38382;-71
2023/02/10 03:37:16;;;;;;;103.25;36.58;;;;;;;-146.25;100.00;52408.75;2072256;28;20056;-70
2023/02/10 03:38:17;;;;;;;96.78;37.20;;;;;;;-146.25;100.00;52433.06;2071836;28;40748;-71
2023/02/10 03:39:19;;;;;;;109.97;36.33;;;;;;;-146.25;100.00;52412.81;2080767;28;37344;-70
2023/02/10 03:40:21;;;;;;;102.60;38.53;;;;;;;-146.25;100.00;52429.03;2080686;28;37465;-70
2023/02/10 03:41:22;;;;;;;103.97;38.25;;;;;;;-146.25;100.00;52439.16;2080228;28;40506;-70
2023/02/10 03:42:24;;;;;;;100.13;37.13;;;;;;;-146.25;100.00;52445.25;2081593;28;20038;-71
2023/02/10 03:43:26;;;;;;;109.05;37.97;;;;;;;-146.25;100.00;52461.47;2080474;28;41834;-70
2023/02/10 03:44:29;;;;;;;106.05;37.60;;;;;;;-146.25;100.00;52408.75;2080614;28;41339;-70
2023/02/10 03:45:31;;;;;;;100.13;36.67;;;;;;;-146.25;100.00;52420.91;2080513;28;30131;-70
2023/02/10 03:46:35;;;;;;;97.63;37.10;;;;;;;-146.25;100.00;52445.25;2079561;28;39152;-70
2023/02/10 03:47:37;;;;;;;89.88;34.17;;;;;;;-146.25;100.00;52412.81;2081195;28;20038;-71
2023/02/10 03:48:39;;;;;;;98.18;34.92;;;;;;;-146.25;100.00;52447.28;2080664;28;41898;-71
2023/02/10 03:49:41;;;;;;;88.93;35.55;;;;;;;-146.25;100.00;52449.31;2080901;28;27298;-71
2023/02/10 03:50:43;;;;;;;104.93;37.85;;;;;;;-146.25;100.00;52457.41;2080535;28;36574;-70
2023/02/10 03:51:44;;;;;;;108.80;37.25;;;;;;;-146.25;100.00;52455.38;2080540;28;39225;-69
2023/02/10 03:52:46;;;;;;;97.90;37.22;;;;;;;-146.25;100.00;52414.84;2080975;28;36471;-70
2023/02/10 03:53:48;;;;;;;98.05;36.53;;;;;;;-146.25;100.00;52445.25;2080066;28;39941;-71
2023/02/10 03:54:49;;;;;;;101.95;35.80;;;;;;;-146.25;100.00;52451.31;2080548;28;39593;-71
2023/02/10 03:55:51;;;;;;;92.55;35.50;;;;;;;-146.25;100.00;52437.13;2080194;28;39487;-70
2023/02/10 03:56:53;;;;;;;96.72;35.83;;;;;;;-146.25;100.00;52451.31;2079644;28;44141;-71
2023/02/10 03:57:54;;;;;;;90.40;35.40;;;;;;;-146.25;100.00;52402.66;2081600;28;32313;-71
2023/02/10 03:58:56;;;;;;;98.57;35.75;;;;;;;-146.25;100.00;52402.66;2082463;28;37539;-71
2023/02/10 03:59:59;;;;;;;83.55;34.17;;;;;;;-146.25;100.00;52463.50;2080507;28;37315;-71
2023/02/10 04:01:09;;;;;;;91.13;35.00;;;;;;;-146.25;100.00;52439.16;2079973;28;37664;-71
2023/02/10 04:02:11;;;;;;;;;;;;;;;-146.25;100.00;52420.91;2080791;28;37505;-69
2023/02/10 04:03:12;;;;;;;94.78;33.22;;;;;;;-146.25;100.00;52469.56;2080365;28;42677;-70
2023/02/10 04:04:17;;;;;;;93.32;34.88;;;;;;;-146.25;100.00;52433.06;2080377;28;39307;-71
2023/02/10 04:05:19;;;;;;;87.20;33.50;;;;;;;-146.25;100.00;52404.69;2079931;28;37558;-71
2023/02/10 04:06:21;;;;;;;98.63;33.88;;;;;;;-146.25;100.00;52429.03;2080199;28;38189;-71
2023/02/10 04:07:22;;;;;;;105.20;37.05;;;;;;;-146.25;100.00;52453.34;2080536;28;38999;-71
2023/02/10 04:08:24;;;;;;;101.95;36.38;;;;;;;-146.25;100.00;52427.00;2080364;28;41864;-71
2023/02/10 04:09:27;;;;;;;90.38;34.47;;;;;;;-146.25;100.00;52441.19;2080451;28;39810;-71
2023/02/10 04:10:29;;;;;;;102.93;36.47;;;;;;;-146.25;100.00;52461.47;2080292;28;37216;-71
2023/02/10 04:11:31;;;;;;;92.80;36.38;;;;;;;-146.25;100.00;52431.06;2080082;28;41707;-69
2023/02/10 04:12:35;;;;;;;106.15;36.65;;;;;;;-146.25;100.00;52406.72;2080061;28;40086;-69
2023/02/10 04:13:40;;;;;;;104.60;34.97;;;;;;;-146.25;100.00;52447.28;2080195;28;41591;-71
2023/02/10 04:14:43;;;;;;;87.20;32.50;;;;;;;-146.25;100.00;52441.19;2080884;28;20034;-70
2023/02/10 04:15:45;;;;;;;96.20;35.33;;;;;;;-146.25;100.00;52429.03;2080811;28;38783;-70
2023/02/10 04:16:47;;;;;;;92.35;34.75;;;;;;;-146.25;100.00;52429.03;2080507;28;40022;-71
2023/02/10 04:17:48;;;;;;;92.85;35.25;;;;;;;-146.25;100.00;52435.09;2080547;28;39906;-70
2023/02/10 04:18:50;;;;;;;90.00;33.45;;;;;;;-146.25;100.00;52441.19;2080406;28;40928;-71
2023/02/10 04:19:52;;;;;;;91.80;34.90;;;;;;;-146.25;100.00;52429.03;2080605;28;37589;-71
2023/02/10 04:20:53;;;;;;;92.93;33.65;;;;;;;-146.25;100.00;52445.25;2079240;28;37786;-71
2023/02/10 04:21:55;;;;;;;98.65;35.38;;;;;;;-146.25;100.00;52408.75;2080401;28;35819;-71
2023/02/10 04:22:57;;;;;;;97.35;35.13;;;;;;;-146.25;100.00;52453.34;2079928;28;40834;-71
2023/02/10 04:23:58;;;;;;;104.20;36.15;;;;;;;-146.25;100.00;52427.00;2080617;28;38438;-71
2023/02/10 04:25:00;;;;;;;95.25;35.22;;;;;;;-146.25;100.00;52424.97;2080246;28;39877;-71
2023/02/10 04:26:04;;;;;;;84.72;33.50;;;;;;;-146.25;100.00;52406.72;2080950;28;20042;-71
2023/02/10 04:27:06;;;;;;;94.53;35.78;;;;;;;-146.25;100.00;52431.06;2079802;28;40001;-71
2023/02/10 04:28:08;;;;;;;91.05;33.92;;;;;;;-146.25;100.00;52410.78;2080045;28;43808;-71
2023/02/10 04:29:11;;;;;;;100.50;35.78;;;;;;;-146.25;100.00;52433.06;2080558;28;36077;-71
2023/02/10 04:30:13;;;;;;;92.72;36.08;;;;;;;-146.25;100.00;52437.13;2079926;28;20045;-71
2023/02/10 04:31:16;;;;;;;92.68;34.10;;;;;;;-146.25;100.00;52424.97;2079881;28;39163;-71
2023/02/10 04:32:18;;;;;;;102.25;35.85;;;;;;;-146.25;100.00;52424.97;2080093;28;37736;-71
2023/02/10 04:33:21;;;;;;;87.65;34.15;;;;;;;-146.25;100.00;52418.88;2080163;28;38921;-71
2023/02/10 04:34:22;;;;;;;92.45;34.72;;;;;;;-146.25;100.00;52424.97;2080781;28;20040;-72
2023/02/10 04:35:27;;;;;;;98.68;35.28;;;;;;;-146.25;100.00;52441.19;2080318;28;37105;-71
2023/02/10 04:36:29;;;;;;;96.75;35.88;;;;;;;-146.25;100.00;52400.63;2080460;28;34680;-71
2023/02/10 04:37:30;;;;;;;97.00;35.40;;;;;;;-146.25;100.00;52445.25;2080788;28;36875;-71
2023/02/10 04:38:32;;;;;;;95.20;35.05;;;;;;;-146.25;100.00;52445.25;2080299;28;38457;-71
2023/02/10 04:39:34;;;;;;;90.65;34.67;;;;;;;-146.25;100.00;52380.38;2079290;28;40610;-71
2023/02/10 04:40:36;;;;;;;92.75;34.90;;;;;;;-146.25;100.00;52445.25;2080348;28;37218;-71
2023/02/10 04:41:37;;;;;;;91.82;33.47;;;;;;;-146.25;100.00;52429.03;2079858;28;38831;-71
2023/02/10 04:42:42;;;;;;;91.75;34.05;;;;;;;-146.25;100.00;52437.13;2080316;28;39079;-71
2023/02/10 04:43:44;;;;;;;86.00;34.28;;;;;;;-146.25;100.00;52449.31;2079989;28;38841;-71
2023/02/10 04:44:46;;;;;;;91.82;33.80;;;;;;;-146.25;100.00;52465.53;2080294;28;38340;-71
2023/02/10 04:45:48;;;;;;;101.95;36.90;;;;;;;-146.25;100.00;52420.91;2080396;28;40210;-71
2023/02/10 04:46:53;;;;;;;100.68;37.50;;;;;;;-146.25;100.00;52453.34;2070879;28;37921;-71
2023/02/10 04:47:55;;;;;;;94.30;33.72;;;;;;;-146.25;100.00;52441.19;2072029;28;38710;-72
2023/02/10 04:48:56;;;;;;;100.70;33.85;;;;;;;-146.25;100.00;52441.19;2080417;28;36465;-71
2023/02/10 04:49:58;;;;;;;102.53;36.40;;;;;;;-146.25;100.00;52437.13;2080038;28;37640;-71
2023/02/10 04:51:05;;;;;;;96.50;36.67;;;;;;;-146.25;100.00;52424.97;2080429;28;38886;-71
2023/02/10 04:52:13;;;;;;;93.75;32.95;;;;;;;-146.25;100.00;52453.34;2080603;28;21085;-71
2023/02/10 04:53:15;;;;;;;94.10;33.75;;;;;;;-146.25;100.00;52424.97;2080488;28;38232;-71
2023/02/10 04:54:17;;;;;;;84.13;33.78;;;;;;;-146.25;100.00;52427.00;2079703;28;36930;-72